Christine, North Dakota
Current Conditions -  °F | °C
As of 1:54 AM on Wednesday 22 Oct 2014 (Local Time) from KJKJ Reporting Station
Clear Clear  
Wind Chill: 55°   Ceiling: Unl
Heat Index: 55°   Visibility: 10mi
Dew Point: 43°   Wind: 21mph
Humidity: 63%   Direction: 150°SSE
Pressure: 29.92"   Gusts: 30mph
Location:  46.57°N, 96.8°W
Report Text: KJKJ 220654Z AUTO 15018G26KT 10SM CLR 13/06 A2992 RMK AO2
Loading
Personal Weather Stations






























Interactive Weather Map
Tropical Storm Tracking
New forecast layout! Learn more

10-Day Weather Forecast

Advertisements
Track Severe Weather on mobile